Time,TemperatureF,DewpointF,PressureIn,WindDirection,WindDirectionDegrees,WindSpeedMPH,WindSpeedGustMPH,Humidity,HourlyPrecipIn,Conditions,Clouds,dailyrainin,SolarRadiationWatts/m^2,SoftwareType,DateUTC
2013-01-11 00:01:00,44.7,38.3,30.50,SE,133,0.0,0.0,78,0.00,CLR,SKC,0.00,0.0,WeatherDisplay:10.37,2013-01-11 05:01:00,
2013-01-11 00:04:00,44.7,38.9,30.50,SE,133,0.0,0.0,80,0.00,CLR,SKC,0.00,0.0,WeatherDisplay:10.37,2013-01-11 05:04:00,
2013-01-11 00:09:00,44.5,38.4,30.49,SSW,205,4.4,4.4,79,0.00,CLR,SKC,0.00,0.0,WeatherDisplay:10.37,2013-01-11 05:09:00,
2013-01-11 00:14:00,44.7,38.3,30.49,South,184,4.6,4.6,78,0.00,CLR,SKC,0.00,0.0,WeatherDisplay:10.37,2013-01-11 05:14:00,
2013-01-11 00:17:00,44.5,38.1,30.49,SW,217,2.1,2.1,78,0.00,CLR,SKC,0.00,0.0,WeatherDisplay:10.37,2013-01-11 05:17:00,
2013-01-11 00:18:00,44.7,38.6,30.49,SW,233,3.0,3.0,79,0.00,CLR,SKC,0.00,0.0,WeatherDisplay:10.37,2013-01-11 05:18:00,
2013-01-11 00:23:00,44.8,38.7,30.49,SW,217,2.3,2.3,79,0.00,CLR,SKC,0.00,0.0,WeatherDisplay:10.37,2013-01-11 05:23:00,
2013-01-11 00:28:00,45.1,39.3,30.49,SSW,212,3.5,3.5,80,0.00,CLR,SKC,0.00,0.0,WeatherDisplay:10.37,2013-01-11 05:28:00,
2013-01-11 00:33:00,45.0,39.2,30.49,SW,219,3.6,3.6,80,0.00,CLR,SKC,0.00,0.0,WeatherDisplay:10.37,2013-01-11 05:33:00,
2013-01-11 00:38:00,45.4,39.6,30.48,WSW,240,3.5,3.5,80,0.00,CLR,SKC,0.00,0.0,WeatherDisplay:10.37,2013-01-11 05:38:00,
2013-01-11 00:43:00,45.4,39.6,30.48,SSW,203,2.5,2.5,80,0.00,CLR,SKC,0.00,0.0,WeatherDisplay:10.37,2013-01-11 05:43:00,
2013-01-11 00:48:00,45.0,39.2,30.48,SSW,212,2.3,0.0,80,0.00,CLR,SKC,0.00,0.0,WeatherDisplay:10.37,2013-01-11 05:48:00,
2013-01-11 00:53:00,45.3,39.2,30.48,SW,220,2.3,2.3,79,0.00,CLR,SKC,0.00,0.0,WeatherDisplay:10.37,2013-01-11 05:53:00,
2013-01-11 00:58:00,45.7,39.6,30.48,WSW,239,0.0,0.0,79,0.00,CLR,SKC,0.00,0.0,WeatherDisplay:10.37,2013-01-11 05:58:00,
2013-01-11 01:03:00,45.3,39.5,30.48,WSW,258,0.8,0.9,80,0.00,CLR,SKC,0.00,0.0,WeatherDisplay:10.37,2013-01-11 06:03:00,
2013-01-11 01:08:00,45.8,39.7,30.48,SSW,200,2.3,2.3,79,0.00,CLR,SKC,0.00,0.0,WeatherDisplay:10.37,2013-01-11 06:08:00,
2013-01-11 01:13:00,45.8,39.7,30.48,SSW,209,3.5,3.5,79,0.00,CLR,SKC,0.00,0.0,WeatherDisplay:10.37,2013-01-11 06:13:00,
2013-01-11 01:18:00,45.6,39.8,30.48,SSW,196,3.5,3.5,80,0.00,CLR,SKC,0.00,0.0,WeatherDisplay:10.37,2013-01-11 06:18:00,
2013-01-11 01:23:00,45.6,39.8,30.48,SSW,206,1.1,1.1,80,0.00,CLR,SKC,0.00,0.0,WeatherDisplay:10.37,2013-01-11 06:23:00,
2013-01-11 01:28:00,45.7,39.9,30.47,WSW,257,3.5,3.5,80,0.00,CLR,SKC,0.00,0.0,WeatherDisplay:10.37,2013-01-11 06:28:00,
2013-01-11 01:33:00,45.7,39.6,30.46,WSW,257,1.8,1.8,79,0.00,CLR,SKC,0.00,0.0,WeatherDisplay:10.37,2013-01-11 06:33:00,
2013-01-11 01:38:00,45.6,39.5,30.46,WSW,248,4.6,4.6,79,0.00,CLR,SKC,0.00,0.0,WeatherDisplay:10.37,2013-01-11 06:38:00,
2013-01-11 01:43:00,45.8,39.3,30.46,WSW,247,4.6,4.6,78,0.00,CLR,SKC,0.00,0.0,WeatherDisplay:10.37,2013-01-11 06:43:00,
2013-01-11 01:48:00,45.6,39.5,30.46,SW,216,5.8,5.8,79,0.00,CLR,SKC,0.00,0.0,WeatherDisplay:10.37,2013-01-11 06:48:00,
2013-01-11 01:53:00,45.6,39.8,30.46,SW,223,6.9,6.9,80,0.00,CLR,SKC,0.00,0.0,WeatherDisplay:10.37,2013-01-11 06:53:00,
2013-01-11 01:58:00,45.7,39.6,30.46,WSW,246,5.8,5.8,79,0.00,CLR,SKC,0.00,0.0,WeatherDisplay:10.37,2013-01-11 06:58:00,
2013-01-11 02:02:00,45.6,39.8,30.46,SSW,213,4.6,4.6,80,0.00,CLR,SKC,0.00,0.0,WeatherDisplay:10.37,2013-01-11 07:02:00,
2013-01-11 02:07:00,45.5,39.7,30.46,South,185,4.6,4.6,80,0.00,CLR,SKC,0.00,0.0,WeatherDisplay:10.37,2013-01-11 07:07:00,
2013-01-11 02:12:00,45.8,40.3,30.45,South,184,0.0,0.0,81,0.00,CLR,SKC,0.00,0.0,WeatherDisplay:10.37,2013-01-11 07:12:00,
2013-01-11 02:17:00,45.2,40.0,30.45,SW,222,3.5,3.5,82,0.00,CLR,SKC,0.00,0.0,WeatherDisplay:10.37,2013-01-11 07:17:00,
2013-01-11 02:22:00,45.2,40.0,30.45,SSW,210,6.9,6.9,82,0.00,CLR,SKC,0.00,0.0,WeatherDisplay:10.37,2013-01-11 07:22:00,
2013-01-11 02:27:00,45.0,39.5,30.45,SW,219,6.9,6.9,81,0.00,CLR,SKC,0.00,0.0,WeatherDisplay:10.37,2013-01-11 07:27:00,
2013-01-11 02:32:00,45.2,39.7,30.44,South,191,2.3,2.7,81,0.00,CLR,SKC,0.00,0.0,WeatherDisplay:10.37,2013-01-11 07:32:00,
2013-01-11 02:37:00,45.2,39.7,30.45,SW,222,4.6,4.6,81,0.00,CLR,SKC,0.00,0.0,WeatherDisplay:10.37,2013-01-11 07:37:00,
2013-01-11 02:42:00,45.4,39.9,30.45,SW,215,3.8,3.8,81,0.00,CLR,SKC,0.00,0.0,WeatherDisplay:10.37,2013-01-11 07:42:00,
2013-01-11 02:47:00,45.4,40.2,30.45,SSW,212,4.6,4.6,82,0.00,CLR,SKC,0.00,0.0,WeatherDisplay:10.37,2013-01-11 07:47:00,
2013-01-11 02:52:00,45.6,40.1,30.45,SW,215,3.5,3.5,81,0.00,CLR,SKC,0.00,0.0,WeatherDisplay:10.37,2013-01-11 07:52:00,
2013-01-11 02:57:00,45.6,40.1,30.45,SSW,193,3.5,3.5,81,0.00,CLR,SKC,0.00,0.0,WeatherDisplay:10.37,2013-01-11 07:57:00,
2013-01-11 03:02:00,45.8,40.3,30.45,SSW,195,3.5,3.5,81,0.00,CLR,SKC,0.00,0.0,WeatherDisplay:10.37,2013-01-11 08:02:00,
2013-01-11 03:07:00,45.7,40.2,30.44,WSW,241,4.6,4.6,81,0.00,CLR,SKC,0.00,0.0,WeatherDisplay:10.37,2013-01-11 08:07:00,
2013-01-11 03:12:00,46.0,40.5,30.45,South,179,4.6,4.6,81,0.00,CLR,SKC,0.00,0.0,WeatherDisplay:10.37,2013-01-11 08:12:00,
2013-01-11 03:17:00,46.1,40.6,30.44,SW,217,5.8,5.8,81,0.00,CLR,SKC,0.00,0.0,WeatherDisplay:10.37,2013-01-11 08:17:00,
2013-01-11 03:22:00,46.2,40.7,30.44,SSW,203,4.6,4.6,81,0.00,CLR,SKC,0.00,0.0,WeatherDisplay:10.37,2013-01-11 08:22:00,
2013-01-11 03:27:00,46.3,40.8,30.44,SW,227,5.8,5.8,81,0.00,CLR,SKC,0.00,0.0,WeatherDisplay:10.37,2013-01-11 08:27:00,
2013-01-11 03:32:00,46.3,40.5,30.43,SW,220,4.6,4.6,80,0.00,CLR,SKC,0.00,0.0,WeatherDisplay:10.37,2013-01-11 08:32:00,
2013-01-11 03:37:00,46.1,40.6,30.43,SW,222,5.8,5.8,81,0.00,CLR,SKC,0.00,0.0,WeatherDisplay:10.37,2013-01-11 08:37:00,
2013-01-11 03:42:00,46.1,40.6,30.43,SSW,209,5.8,5.8,81,0.00,CLR,SKC,0.00,0.0,WeatherDisplay:10.37,2013-01-11 08:42:00,
2013-01-11 03:47:00,46.4,40.9,30.42,SW,222,6.9,6.9,81,0.00,CLR,SKC,0.00,0.0,WeatherDisplay:10.37,2013-01-11 08:47:00,
2013-01-11 03:52:00,46.3,40.8,30.42,WSW,246,5.8,5.8,81,0.00,CLR,SKC,0.00,0.0,WeatherDisplay:10.37,2013-01-11 08:52:00,
2013-01-11 03:57:00,46.8,41.6,30.42,SSW,208,5.8,5.8,82,0.00,CLR,SKC,0.00,0.0,WeatherDisplay:10.37,2013-01-11 08:57:00,
2013-01-11 04:02:00,46.8,41.6,30.42,South,191,4.6,4.6,82,0.00,CLR,SKC,0.00,0.0,WeatherDisplay:10.37,2013-01-11 09:02:00,
2013-01-11 04:07:00,46.9,41.7,30.42,SSW,203,4.6,4.6,82,0.00,CLR,SKC,0.00,0.0,WeatherDisplay:10.37,2013-01-11 09:07:00,
2013-01-11 04:12:00,46.6,41.7,30.42,South,179,4.6,4.6,83,0.00,CLR,SKC,0.00,0.0,WeatherDisplay:10.37,2013-01-11 09:12:00,
2013-01-11 04:17:00,46.7,41.8,30.41,SW,236,4.6,4.6,83,0.00,CLR,SKC,0.00,0.0,WeatherDisplay:10.37,2013-01-11 09:17:00,
2013-01-11 04:22:00,47.2,42.6,30.41,SW,224,4.6,4.6,84,0.00,CLR,SKC,0.00,0.0,WeatherDisplay:10.37,2013-01-11 09:22:00,
2013-01-11 04:27:00,47.0,42.4,30.41,WSW,248,4.6,4.6,84,0.00,CLR,SKC,0.00,0.0,WeatherDisplay:10.37,2013-01-11 09:27:00,
2013-01-11 04:32:00,47.1,42.5,30.41,South,182,5.8,5.8,84,0.00,CLR,SKC,0.00,0.0,WeatherDisplay:10.37,2013-01-11 09:32:00,
2013-01-11 04:37:00,47.0,42.4,30.41,South,184,5.8,5.8,84,0.00,CLR,SKC,0.00,0.0,WeatherDisplay:10.37,2013-01-11 09:37:00,
2013-01-11 04:42:00,47.4,43.1,30.40,WSW,246,3.4,3.4,85,0.00,CLR,SKC,0.00,0.0,WeatherDisplay:10.37,2013-01-11 09:42:00,
2013-01-11 04:47:00,47.4,43.1,30.40,WSW,241,2.0,2.0,85,0.00,CLR,SKC,0.00,0.0,WeatherDisplay:10.37,2013-01-11 09:47:00,
2013-01-11 04:52:00,47.1,43.1,30.39,WSW,254,4.6,4.6,86,0.00,CLR,SKC,0.00,0.0,WeatherDisplay:10.37,2013-01-11 09:52:00,
2013-01-11 04:57:00,47.5,43.5,30.39,WSW,237,4.6,4.6,86,0.00,CLR,SKC,0.00,0.0,WeatherDisplay:10.37,2013-01-11 09:57:00,
2013-01-11 05:02:00,47.5,43.5,30.39,SSW,200,4.6,4.6,86,0.00,CLR,SKC,0.00,0.0,WeatherDisplay:10.37,2013-01-11 10:02:00,
2013-01-11 05:07:00,47.4,43.4,30.39,SE,143,5.8,5.8,86,0.00,CLR,SKC,0.00,0.0,WeatherDisplay:10.37,2013-01-11 10:07:00,
2013-01-11 05:12:00,47.3,43.3,30.39,SW,217,3.5,3.5,86,0.00,CLR,SKC,0.00,0.0,WeatherDisplay:10.37,2013-01-11 10:12:00,
2013-01-11 05:17:00,47.4,43.7,30.39,SW,220,3.5,3.5,87,0.00,CLR,SKC,0.00,0.0,WeatherDisplay:10.37,2013-01-11 10:17:00,
2013-01-11 05:22:00,47.5,43.8,30.38,SSW,198,5.9,5.9,87,0.00,CLR,SKC,0.00,0.0,WeatherDisplay:10.37,2013-01-11 10:22:00,
2013-01-11 05:27:00,47.4,43.7,30.38,SW,230,6.7,6.7,87,0.00,CLR,SKC,0.00,0.0,WeatherDisplay:10.37,2013-01-11 10:27:00,
2013-01-11 05:32:00,47.3,43.6,30.38,SSW,208,9.4,9.4,87,0.00,CLR,SKC,0.00,0.0,WeatherDisplay:10.37,2013-01-11 10:32:00,
2013-01-11 05:37:00,47.4,44.0,30.38,West,263,5.8,5.8,88,0.00,CLR,SKC,0.00,0.0,WeatherDisplay:10.37,2013-01-11 10:37:00,
2013-01-11 05:42:00,47.5,44.1,30.38,SW,224,4.8,4.8,88,0.00,CLR,SKC,0.00,0.0,WeatherDisplay:10.37,2013-01-11 10:42:00,
2013-01-11 05:47:00,47.3,44.2,30.38,SSW,192,5.2,5.2,89,0.00,CLR,SKC,0.00,0.0,WeatherDisplay:10.37,2013-01-11 10:47:00,
2013-01-11 05:52:00,47.2,44.1,30.39,SSW,195,2.9,2.9,89,0.00,CLR,SKC,0.00,0.0,WeatherDisplay:10.37,2013-01-11 10:52:00,
2013-01-11 05:57:00,47.5,44.1,30.39,SW,224,5.8,5.8,88,0.00,CLR,SKC,0.00,0.0,WeatherDisplay:10.37,2013-01-11 10:57:00,
2013-01-11 06:02:00,47.4,44.3,30.39,SW,226,4.6,4.6,89,0.00,CLR,SKC,0.00,0.0,WeatherDisplay:10.37,2013-01-11 11:02:00,
2013-01-11 06:07:00,47.5,44.4,30.38,West,260,5.8,5.8,89,0.00,CLR,SKC,0.00,0.0,WeatherDisplay:10.37,2013-01-11 11:07:00,
2013-01-11 06:12:00,47.4,44.3,30.38,WSW,247,3.9,3.9,89,0.00,CLR,SKC,0.00,0.0,WeatherDisplay:10.37,2013-01-11 11:12:00,
2013-01-11 06:17:00,47.5,44.4,30.38,SW,236,4.6,4.6,89,0.00,CLR,SKC,0.00,0.0,WeatherDisplay:10.37,2013-01-11 11:17:00,
2013-01-11 06:22:00,47.5,44.4,30.39,SW,217,5.8,5.8,89,0.00,CLR,SKC,0.00,0.0,WeatherDisplay:10.37,2013-01-11 11:22:00,
2013-01-11 06:27:00,47.6,44.5,30.38,SSW,205,8.1,8.1,89,0.00,CLR,SKC,0.00,0.0,WeatherDisplay:10.37,2013-01-11 11:27:00,
2013-01-11 06:32:00,47.3,44.5,30.38,SSE,152,3.5,3.5,90,0.00,CLR,SKC,0.00,0.0,WeatherDisplay:10.37,2013-01-11 11:32:00,
2013-01-11 06:37:00,47.2,44.4,30.39,SW,220,6.9,6.9,90,0.00,CLR,SKC,0.00,0.0,WeatherDisplay:10.37,2013-01-11 11:37:00,
2013-01-11 06:42:00,47.4,44.6,30.39,South,178,4.8,4.8,90,0.00,CLR,SKC,0.00,0.0,WeatherDisplay:10.37,2013-01-11 11:42:00,
2013-01-11 06:47:00,47.1,44.3,30.39,WSW,258,1.1,0.0,90,0.00,CLR,SKC,0.00,0.0,WeatherDisplay:10.37,2013-01-11 11:47:00,
2013-01-11 06:52:00,47.5,44.7,30.39,SW,236,3.6,4.4,90,0.00,CLR,SKC,0.00,0.0,WeatherDisplay:10.37,2013-01-11 11:52:00,
2013-01-11 06:57:00,47.4,44.6,30.38,SSW,196,6.9,6.9,90,0.00,CLR,SKC,0.00,0.0,WeatherDisplay:10.37,2013-01-11 11:57:00,
2013-01-11 07:02:00,47.5,44.7,30.38,SSW,199,5.8,5.8,90,0.00,CLR,SKC,0.00,0.0,WeatherDisplay:10.37,2013-01-11 12:02:00,
2013-01-11 07:07:00,47.5,44.7,30.38,SW,234,5.6,5.6,90,0.00,CLR,SKC,0.00,0.0,WeatherDisplay:10.37,2013-01-11 12:07:00,
2013-01-11 07:12:00,47.6,44.8,30.38,SSW,192,2.7,2.7,90,0.00,CLR,SKC,0.00,0.0,WeatherDisplay:10.37,2013-01-11 12:12:00,
2013-01-11 07:17:00,47.5,44.7,30.38,SW,233,4.6,4.6,90,0.00,CLR,SKC,0.00,0.0,WeatherDisplay:10.37,2013-01-11 12:17:00,
2013-01-11 07:22:00,47.5,45.0,30.39,SSW,212,5.8,5.8,91,0.00,CLR,SKC,0.00,0.0,WeatherDisplay:10.37,2013-01-11 12:22:00,
2013-01-11 07:27:00,47.5,45.0,30.38,SW,227,5.8,5.8,91,0.09,RA,SKC,0.09,0.0,WeatherDisplay:10.37,2013-01-11 12:27:00,
2013-01-11 07:37:00,47.8,45.3,30.39,North,0,1.1,1.1,91,0.09,RA,SKC,0.09,0.0,WeatherDisplay:10.37,2013-01-11 12:37:00,
2013-01-11 07:43:00,47.5,45.0,30.39,SSW,206,5.8,5.8,91,0.09,RA,SKC,0.09,0.0,WeatherDisplay:10.37,2013-01-11 12:43:00,
2013-01-11 07:48:00,48.0,45.5,30.38,SW,224,4.6,4.6,91,0.09,,SKC,0.09,0.0,WeatherDisplay:10.37,2013-01-11 12:48:00,
2013-01-11 07:53:00,47.7,45.2,30.38,North,7,0.0,0.0,91,0.09,CLR,SKC,0.09,0.0,WeatherDisplay:10.37,2013-01-11 12:53:00,
2013-01-11 07:58:00,48.2,45.7,30.38,SSW,196,5.8,5.8,91,0.09,CLR,SKC,0.09,0.0,WeatherDisplay:10.37,2013-01-11 12:58:00,
2013-01-11 08:03:00,48.2,45.7,30.39,South,185,4.6,4.6,91,0.09,CLR,SKC,0.09,0.0,WeatherDisplay:10.37,2013-01-11 13:03:00,
2013-01-11 08:08:00,48.3,45.8,30.39,SSW,213,0.0,0.0,91,0.09,CLR,SKC,0.09,0.0,WeatherDisplay:10.37,2013-01-11 13:08:00,
2013-01-11 08:13:00,48.5,45.7,30.39,West,277,3.5,3.5,90,0.09,CLR,SKC,0.09,0.0,WeatherDisplay:10.37,2013-01-11 13:13:00,
2013-01-11 08:18:00,48.4,45.9,30.39,SW,227,2.3,2.3,91,0.09,CLR,SKC,0.09,0.0,WeatherDisplay:10.37,2013-01-11 13:18:00,
2013-01-11 08:23:00,48.7,46.5,30.38,SW,233,0.0,0.0,92,0.09,CLR,SKC,0.09,0.0,WeatherDisplay:10.37,2013-01-11 13:23:00,
2013-01-11 08:28:00,49.1,46.9,30.38,West,261,1.1,0.0,92,0.09,CLR,SKC,0.09,0.0,WeatherDisplay:10.37,2013-01-11 13:28:00,
2013-01-11 08:34:00,48.9,46.7,30.38,SSE,150,0.0,0.0,92,0.09,CLR,SKC,0.09,0.0,WeatherDisplay:10.37,2013-01-11 13:34:00,
2013-01-11 08:39:00,49.4,47.2,30.38,SSW,196,1.1,0.0,92,0.00,CLR,SKC,0.09,0.0,WeatherDisplay:10.37,2013-01-11 13:39:00,
2013-01-11 08:44:00,49.2,47.0,30.38,SSW,213,0.0,0.0,92,0.00,CLR,SKC,0.09,0.0,WeatherDisplay:10.37,2013-01-11 13:44:00,
2013-01-11 08:49:00,49.6,47.1,30.38,ESE,117,0.8,0.8,91,0.00,CLR,SKC,0.09,0.0,WeatherDisplay:10.37,2013-01-11 13:49:00,
2013-01-11 08:54:00,49.8,47.3,30.38,ESE,117,0.0,0.0,91,0.00,CLR,SKC,0.09,0.0,WeatherDisplay:10.37,2013-01-11 13:54:00,
2013-01-11 08:59:00,49.7,47.2,30.38,ESE,117,0.0,0.0,91,0.00,CLR,SKC,0.09,0.0,WeatherDisplay:10.37,2013-01-11 13:59:00,
2013-01-11 09:04:00,50.2,47.4,30.38,ESE,117,0.0,0.0,90,0.00,OVC,SKC,0.09,0.0,WeatherDisplay:10.37,2013-01-11 14:04:00,
2013-01-11 09:09:00,49.9,47.1,30.37,South,188,2.3,2.3,90,0.00,OVC,SKC,0.09,0.0,WeatherDisplay:10.37,2013-01-11 14:09:00,
2013-01-11 09:14:00,50.1,47.3,30.37,ENE,64,1.1,0.0,90,0.00,OVC,SKC,0.09,0.0,WeatherDisplay:10.37,2013-01-11 14:14:00,
2013-01-11 09:19:00,50.1,47.3,30.36,SE,136,2.3,2.3,90,0.00,OVC,SKC,0.09,0.0,WeatherDisplay:10.37,2013-01-11 14:19:00,
2013-01-11 09:24:00,50.2,47.4,30.36,SE,136,0.0,0.0,90,0.00,OVC,SKC,0.09,0.0,WeatherDisplay:10.37,2013-01-11 14:24:00,
2013-01-11 09:29:00,51.0,48.2,30.35,SE,136,0.0,0.0,90,0.00,OVC,SKC,0.09,0.0,WeatherDisplay:10.37,2013-01-11 14:29:00,
2013-01-11 09:34:00,50.7,47.9,30.35,SSW,200,0.4,0.5,90,0.00,OVC,SKC,0.09,0.0,WeatherDisplay:10.37,2013-01-11 14:34:00,
2013-01-11 09:39:00,51.5,48.7,30.35,SSW,200,0.0,0.0,90,0.00,OVC,SKC,0.09,0.0,WeatherDisplay:10.37,2013-01-11 14:39:00,
2013-01-11 09:44:00,51.3,48.5,30.35,WSW,240,0.0,0.0,90,0.00,OVC,SKC,0.09,0.0,WeatherDisplay:10.37,2013-01-11 14:44:00,
2013-01-11 09:49:00,51.9,49.1,30.34,SW,232,3.5,3.5,90,0.00,OVC,SKC,0.09,0.0,WeatherDisplay:10.37,2013-01-11 14:49:00,
2013-01-11 09:54:00,52.0,48.9,30.34,SW,232,0.0,0.0,89,0.00,OVC,SKC,0.09,0.0,WeatherDisplay:10.37,2013-01-11 14:54:00,
2013-01-11 09:59:00,52.4,49.3,30.34,SSW,198,0.0,0.0,89,0.00,OVC,SKC,0.09,0.0,WeatherDisplay:10.37,2013-01-11 14:59:00,
2013-01-11 10:04:00,52.7,49.5,30.35,SSW,198,0.0,0.0,89,0.00,OVC,SKC,0.09,0.0,WeatherDisplay:10.37,2013-01-11 15:04:00,
2013-01-11 10:09:00,52.3,49.5,30.35,SSW,198,0.0,0.0,90,0.00,OVC,SKC,0.09,0.0,WeatherDisplay:10.37,2013-01-11 15:09:00,
2013-01-11 10:14:00,52.6,50.0,30.35,North,1,0.0,0.0,91,0.00,OVC,SKC,0.09,0.0,WeatherDisplay:10.37,2013-01-11 15:14:00,
2013-01-11 10:19:00,52.5,49.9,30.35,North,1,0.0,0.0,91,0.00,OVC,SKC,0.09,0.0,WeatherDisplay:10.37,2013-01-11 15:19:00,
2013-01-11 10:24:00,52.5,50.2,30.34,North,1,0.0,0.0,92,0.00,OVC,SKC,0.09,0.0,WeatherDisplay:10.37,2013-01-11 15:24:00,
2013-01-11 10:29:00,52.8,50.8,30.34,South,185,2.3,2.3,93,0.00,OVC,SKC,0.09,0.0,WeatherDisplay:10.37,2013-01-11 15:29:00,
2013-01-11 10:34:00,52.4,50.4,30.34,SSE,164,0.4,0.4,93,0.00,OVC,SKC,0.09,0.0,WeatherDisplay:10.37,2013-01-11 15:34:00,
2013-01-11 10:39:00,52.7,50.4,30.34,ENE,73,1.1,0.0,92,0.00,OVC,SKC,0.09,0.0,WeatherDisplay:10.37,2013-01-11 15:39:00,
2013-01-11 10:44:00,52.9,50.6,30.34,ENE,73,0.0,0.0,92,0.00,OVC,SKC,0.09,0.0,WeatherDisplay:10.37,2013-01-11 15:44:00,
2013-01-11 10:49:00,52.9,50.6,30.33,North,0,0.0,0.0,92,0.00,OVC,SKC,0.09,0.0,WeatherDisplay:10.37,2013-01-11 15:49:00,
2013-01-11 10:54:00,53.2,51.5,30.33,ENE,73,0.0,0.0,94,0.00,OVC,SKC,0.09,0.0,WeatherDisplay:10.37,2013-01-11 15:54:00,
2013-01-11 10:59:00,53.1,51.1,30.32,ENE,73,0.0,0.0,93,0.00,OVC,SKC,0.09,0.0,WeatherDisplay:10.37,2013-01-11 15:59:00,
2013-01-11 11:04:00,53.3,51.6,30.32,East,92,3.5,3.5,94,0.00,OVC,SKC,0.09,0.0,WeatherDisplay:10.37,2013-01-11 16:04:00,
2013-01-11 11:09:00,53.2,51.2,30.32,ENE,78,4.6,4.6,93,0.00,OVC,SKC,0.09,0.0,WeatherDisplay:10.37,2013-01-11 16:09:00,
2013-01-11 11:14:00,53.7,52.0,30.32,ESE,109,2.5,2.5,94,0.00,OVC,SKC,0.09,0.0,WeatherDisplay:10.37,2013-01-11 16:14:00,
2013-01-11 11:19:00,53.1,51.4,30.32,SE,145,3.5,3.5,94,0.00,OVC,SKC,0.09,0.0,WeatherDisplay:10.37,2013-01-11 16:19:00,
2013-01-11 11:24:00,53.4,51.7,30.32,SE,137,2.3,2.3,94,0.00,OVC,SKC,0.09,0.0,WeatherDisplay:10.37,2013-01-11 16:24:00,
2013-01-11 11:29:00,53.3,51.6,30.31,SSE,151,3.9,3.9,94,0.00,OVC,SKC,0.09,0.0,WeatherDisplay:10.37,2013-01-11 16:29:00,
2013-01-11 11:34:00,53.3,51.9,30.31,ESE,117,4.6,4.6,95,0.00,OVC,SKC,0.09,0.0,WeatherDisplay:10.37,2013-01-11 16:34:00,
2013-01-11 11:39:00,53.4,52.0,30.31,ENE,65,4.6,4.6,95,0.00,OVC,SKC,0.09,0.0,WeatherDisplay:10.37,2013-01-11 16:39:00,
2013-01-11 11:44:00,53.5,52.4,30.30,SSE,162,5.2,5.2,96,0.00,OVC,SKC,0.09,0.0,WeatherDisplay:10.37,2013-01-11 16:44:00,
2013-01-11 11:49:00,53.5,52.4,30.30,SSE,160,4.6,4.6,96,0.01,RA,SKC,0.10,0.0,WeatherDisplay:10.37,2013-01-11 16:49:00,
2013-01-11 11:54:00,53.0,51.9,30.30,SE,134,6.9,6.9,96,0.01,RA,SKC,0.10,0.0,WeatherDisplay:10.37,2013-01-11 16:54:00,
2013-01-11 11:59:00,53.1,52.0,30.30,ESE,102,4.9,4.9,96,0.01,OVC,SKC,0.10,0.0,WeatherDisplay:10.37,2013-01-11 16:59:00,
2013-01-11 12:04:00,52.8,52.0,30.30,SE,137,1.3,2.4,97,0.01,OVC,SKC,0.10,0.0,WeatherDisplay:10.37,2013-01-11 17:04:00,
2013-01-11 12:09:00,53.0,52.2,30.30,East,90,5.8,5.8,97,0.01,OVC,SKC,0.10,0.0,WeatherDisplay:10.37,2013-01-11 17:09:00,
2013-01-11 12:14:00,53.3,52.5,30.30,ESE,102,4.6,4.6,97,0.01,OVC,SKC,0.10,0.0,WeatherDisplay:10.37,2013-01-11 17:14:00,
2013-01-11 12:19:00,52.8,52.0,30.29,East,88,4.6,4.6,97,0.01,OVC,SKC,0.10,0.0,WeatherDisplay:10.37,2013-01-11 17:19:00,
2013-01-11 12:24:00,52.8,52.0,30.28,SSE,148,2.3,2.3,97,0.01,OVC,SKC,0.10,0.0,WeatherDisplay:10.37,2013-01-11 17:24:00,
2013-01-11 12:29:00,53.0,52.2,30.27,South,179,3.5,3.5,97,0.01,OVC,SKC,0.10,0.0,WeatherDisplay:10.37,2013-01-11 17:29:00,
2013-01-11 12:34:00,52.6,51.8,30.27,SSE,147,4.7,4.7,97,0.01,OVC,SKC,0.10,0.0,WeatherDisplay:10.37,2013-01-11 17:34:00,
2013-01-11 12:39:00,52.4,51.9,30.27,East,95,5.8,5.8,98,0.01,OVC,SKC,0.10,0.0,WeatherDisplay:10.37,2013-01-11 17:39:00,
2013-01-11 12:44:00,52.9,52.1,30.28,SSE,167,4.6,4.6,97,0.01,OVC,SKC,0.10,0.0,WeatherDisplay:10.37,2013-01-11 17:44:00,
2013-01-11 12:49:00,53.0,52.2,30.27,ESE,121,4.6,4.6,97,0.00,OVC,SKC,0.10,0.0,WeatherDisplay:10.37,2013-01-11 17:49:00,
2013-01-11 12:54:00,53.0,52.2,30.27,East,80,2.8,2.8,97,0.00,OVC,SKC,0.10,0.0,WeatherDisplay:10.37,2013-01-11 17:54:00,
2013-01-11 12:59:00,53.0,52.2,30.26,SSE,150,2.3,2.3,97,0.00,OVC,SKC,0.10,0.0,WeatherDisplay:10.37,2013-01-11 17:59:00,
2013-01-11 13:04:00,53.0,52.2,30.26,SE,144,3.5,3.5,97,0.00,OVC,SKC,0.10,0.0,WeatherDisplay:10.37,2013-01-11 18:04:00,
2013-01-11 13:09:00,53.3,52.5,30.26,SSE,147,2.3,2.3,97,0.00,OVC,SKC,0.10,0.0,WeatherDisplay:10.37,2013-01-11 18:09:00,
2013-01-11 13:14:00,53.3,52.5,30.26,East,88,2.3,2.3,97,0.00,OVC,SKC,0.10,0.0,WeatherDisplay:10.37,2013-01-11 18:14:00,
2013-01-11 13:19:00,53.2,52.4,30.26,SSW,196,0.0,0.0,97,0.00,OVC,SKC,0.10,0.0,WeatherDisplay:10.37,2013-01-11 18:19:00,
2013-01-11 13:24:00,53.5,52.7,30.26,SSW,196,0.0,0.0,97,0.00,OVC,SKC,0.10,0.0,WeatherDisplay:10.37,2013-01-11 18:24:00,
2013-01-11 13:29:00,53.3,52.5,30.25,SSW,196,0.0,0.0,97,0.00,OVC,SKC,0.10,0.0,WeatherDisplay:10.37,2013-01-11 18:29:00,
2013-01-11 13:34:00,53.1,52.3,30.25,SW,222,2.3,2.3,97,0.00,OVC,SKC,0.10,0.0,WeatherDisplay:10.37,2013-01-11 18:34:00,
2013-01-11 13:39:00,53.4,52.8,30.25,SW,226,1.6,1.6,98,0.00,OVC,SKC,0.10,0.0,WeatherDisplay:10.37,2013-01-11 18:39:00,
2013-01-11 13:44:00,53.4,52.8,30.24,South,179,0.0,0.0,98,0.00,OVC,SKC,0.10,0.0,WeatherDisplay:10.37,2013-01-11 18:44:00,
2013-01-11 13:49:00,53.6,53.0,30.23,SW,232,3.5,3.5,98,0.00,OVC,SKC,0.10,0.0,WeatherDisplay:10.37,2013-01-11 18:49:00,
2013-01-11 13:54:00,54.1,53.5,30.23,South,174,3.5,3.5,98,0.00,OVC,SKC,0.10,0.0,WeatherDisplay:10.37,2013-01-11 18:54:00,
2013-01-11 13:59:00,53.8,53.2,30.23,WSW,251,2.4,2.4,98,0.00,OVC,SKC,0.10,0.0,WeatherDisplay:10.37,2013-01-11 18:59:00,
2013-01-11 14:04:00,53.9,53.3,30.23,SW,236,3.5,3.5,98,0.00,OVC,SKC,0.10,0.0,WeatherDisplay:10.37,2013-01-11 19:04:00,
2013-01-11 14:09:00,54.1,53.5,30.23,SSW,199,1.1,0.0,98,0.00,OVC,SKC,0.10,0.0,WeatherDisplay:10.37,2013-01-11 19:09:00,
2013-01-11 14:14:00,54.6,54.0,30.22,West,261,1.1,1.1,98,0.00,OVC,SKC,0.10,0.0,WeatherDisplay:10.37,2013-01-11 19:14:00,
2013-01-11 14:19:00,54.1,53.5,30.22,NW,325,0.0,0.0,98,0.00,OVC,SKC,0.10,0.0,WeatherDisplay:10.37,2013-01-11 19:19:00,
2013-01-11 14:24:00,54.3,53.7,30.22,ESE,116,1.1,1.1,98,0.00,OVC,SKC,0.10,0.0,WeatherDisplay:10.37,2013-01-11 19:24:00,
2013-01-11 14:29:00,54.6,54.0,30.22,ESE,116,0.0,0.0,98,0.00,OVC,SKC,0.10,0.0,WeatherDisplay:10.37,2013-01-11 19:29:00,
2013-01-11 14:34:00,54.5,53.9,30.22,ESE,116,0.0,0.0,98,0.00,OVC,SKC,0.10,0.0,WeatherDisplay:10.37,2013-01-11 19:34:00,
2013-01-11 14:39:00,54.6,54.0,30.21,South,178,1.1,1.1,98,0.00,OVC,SKC,0.10,0.0,WeatherDisplay:10.37,2013-01-11 19:39:00,
2013-01-11 14:44:00,54.7,54.1,30.21,South,178,0.0,0.0,98,0.00,OVC,SKC,0.10,0.0,WeatherDisplay:10.37,2013-01-11 19:44:00,
2013-01-11 14:49:00,55.1,54.5,30.21,South,178,0.0,0.0,98,0.00,OVC,SKC,0.10,0.0,WeatherDisplay:10.37,2013-01-11 19:49:00,
2013-01-11 14:54:00,55.2,54.6,30.21,South,178,0.0,0.0,98,0.00,OVC,SKC,0.10,0.0,WeatherDisplay:10.37,2013-01-11 19:54:00,
2013-01-11 14:59:00,54.8,54.2,30.20,SSW,202,0.0,0.0,98,0.00,OVC,SKC,0.10,0.0,WeatherDisplay:10.37,2013-01-11 19:59:00,
2013-01-11 15:04:00,55.0,54.4,30.21,SSW,202,0.0,0.0,98,0.00,OVC,SKC,0.10,0.0,WeatherDisplay:10.37,2013-01-11 20:04:00,
2013-01-11 15:09:00,55.1,54.5,30.21,SSE,151,2.2,2.2,98,0.00,OVC,SKC,0.10,0.0,WeatherDisplay:10.37,2013-01-11 20:09:00,
2013-01-11 15:14:00,55.6,55.0,30.20,SSE,162,2.3,2.3,98,0.00,OVC,SKC,0.10,0.0,WeatherDisplay:10.37,2013-01-11 20:14:00,
2013-01-11 15:19:00,55.7,54.9,30.20,SSE,164,0.0,0.0,97,0.00,OVC,SKC,0.10,0.0,WeatherDisplay:10.37,2013-01-11 20:19:00,
2013-01-11 15:24:00,56.1,55.3,30.20,SW,224,2.3,0.0,97,0.00,OVC,SKC,0.10,0.0,WeatherDisplay:10.37,2013-01-11 20:24:00,
2013-01-11 15:29:00,56.3,55.5,30.20,SW,224,0.0,0.0,97,0.00,OVC,SKC,0.10,0.0,WeatherDisplay:10.37,2013-01-11 20:29:00,
2013-01-11 15:34:00,56.1,55.3,30.19,SW,224,0.0,0.0,97,0.00,OVC,SKC,0.10,0.0,WeatherDisplay:10.37,2013-01-11 20:34:00,
2013-01-11 15:39:00,57.1,56.3,30.19,SW,224,0.0,0.0,97,0.00,OVC,SKC,0.10,0.0,WeatherDisplay:10.37,2013-01-11 20:39:00,
2013-01-11 15:44:00,57.0,56.2,30.19,SW,224,0.0,0.0,97,0.00,OVC,SKC,0.10,0.0,WeatherDisplay:10.37,2013-01-11 20:44:00,
2013-01-11 15:49:00,57.1,56.3,30.19,SW,224,0.0,0.0,97,0.00,OVC,SKC,0.10,0.0,WeatherDisplay:10.37,2013-01-11 20:49:00,
2013-01-11 15:54:00,57.7,56.9,30.19,SSW,200,0.0,0.4,97,0.00,OVC,SKC,0.10,0.0,WeatherDisplay:10.37,2013-01-11 20:54:00,
2013-01-11 15:59:00,57.5,56.4,30.19,SSW,200,0.0,0.0,96,0.00,OVC,SKC,0.10,0.0,WeatherDisplay:10.37,2013-01-11 20:59:00,
2013-01-11 16:04:00,57.7,56.6,30.19,WNW,292,0.7,0.7,96,0.00,CLR,SKC,0.10,0.0,WeatherDisplay:10.37,2013-01-11 21:04:00,
2013-01-11 16:09:00,57.9,56.8,30.19,WNW,292,0.0,0.0,96,0.00,CLR,SKC,0.10,0.0,WeatherDisplay:10.37,2013-01-11 21:09:00,
2013-01-11 16:14:00,57.8,56.7,30.19,WNW,292,0.0,0.0,96,0.00,CLR,SKC,0.10,0.0,WeatherDisplay:10.37,2013-01-11 21:14:00,
2013-01-11 16:19:00,58.1,57.0,30.19,West,281,0.0,0.0,96,0.00,CLR,SKC,0.10,0.0,WeatherDisplay:10.37,2013-01-11 21:19:00,
2013-01-11 16:24:00,58.1,57.0,30.19,West,281,0.0,0.0,96,0.00,CLR,SKC,0.10,0.0,WeatherDisplay:10.37,2013-01-11 21:24:00,
2013-01-11 16:29:00,58.1,57.0,30.19,West,281,0.0,0.0,96,0.00,CLR,SKC,0.10,0.0,WeatherDisplay:10.37,2013-01-11 21:29:00,
2013-01-11 16:34:00,58.1,57.0,30.19,NNE,13,0.4,0.5,96,0.00,CLR,SKC,0.10,0.0,WeatherDisplay:10.37,2013-01-11 21:34:00,
2013-01-11 16:40:00,58.2,57.1,30.19,NNE,13,0.0,0.0,96,0.00,CLR,SKC,0.10,0.0,WeatherDisplay:10.37,2013-01-11 21:40:00,
2013-01-11 16:45:00,58.1,57.0,30.19,NNE,13,0.0,0.0,96,0.00,CLR,SKC,0.10,0.0,WeatherDisplay:10.37,2013-01-11 21:45:00,
2013-01-11 16:50:00,58.0,56.9,30.19,NNE,13,0.0,0.0,96,0.00,CLR,SKC,0.10,0.0,WeatherDisplay:10.37,2013-01-11 21:50:00,
2013-01-11 16:55:00,58.0,56.9,30.19,NNE,13,0.0,0.0,96,0.00,CLR,SKC,0.10,0.0,WeatherDisplay:10.37,2013-01-11 21:55:00,
2013-01-11 17:00:00,58.2,57.1,30.19,NNE,13,0.0,0.0,96,0.00,CLR,SKC,0.10,0.0,WeatherDisplay:10.37,2013-01-11 22:00:00,
2013-01-11 17:05:00,58.0,56.9,30.18,NNE,13,0.0,0.0,96,0.00,CLR,SKC,0.10,0.0,WeatherDisplay:10.37,2013-01-11 22:05:00,
2013-01-11 17:10:00,58.1,57.0,30.18,NNE,13,0.0,0.0,96,0.00,CLR,SKC,0.10,0.0,WeatherDisplay:10.37,2013-01-11 22:10:00,
2013-01-11 17:15:00,57.8,56.7,30.17,NNE,13,0.0,0.0,96,0.00,CLR,SKC,0.10,0.0,WeatherDisplay:10.37,2013-01-11 22:15:00,
2013-01-11 17:20:00,57.5,56.7,30.17,NNE,13,0.0,0.0,97,0.00,CLR,SKC,0.10,0.0,WeatherDisplay:10.37,2013-01-11 22:20:00,
2013-01-11 17:25:00,57.2,56.4,30.17,NNE,13,0.0,0.0,97,0.00,CLR,SKC,0.10,0.0,WeatherDisplay:10.37,2013-01-11 22:25:00,
2013-01-11 17:30:00,56.9,56.1,30.17,NNE,13,0.0,0.0,97,0.00,CLR,SKC,0.10,0.0,WeatherDisplay:10.37,2013-01-11 22:30:00,
2013-01-11 17:35:00,56.3,55.5,30.17,NNE,13,0.0,0.0,97,0.00,CLR,SKC,0.10,0.0,WeatherDisplay:10.37,2013-01-11 22:35:00,
2013-01-11 17:40:00,56.0,55.2,30.17,NNE,13,0.0,0.0,97,0.00,CLR,SKC,0.10,0.0,WeatherDisplay:10.37,2013-01-11 22:40:00,
2013-01-11 17:45:00,56.1,55.5,30.17,NNE,13,0.0,0.0,98,0.00,CLR,SKC,0.10,0.0,WeatherDisplay:10.37,2013-01-11 22:45:00,
2013-01-11 17:50:00,55.6,55.0,30.17,NNE,13,0.0,0.0,98,0.00,CLR,SKC,0.10,0.0,WeatherDisplay:10.37,2013-01-11 22:50:00,
2013-01-11 17:55:00,55.8,55.2,30.18,NNE,13,0.0,0.0,98,0.00,CLR,SKC,0.10,0.0,WeatherDisplay:10.37,2013-01-11 22:55:00,
2013-01-11 18:00:00,56.1,55.5,30.18,ENE,73,0.9,0.9,98,0.00,CLR,SKC,0.10,0.0,WeatherDisplay:10.37,2013-01-11 23:00:00,
2013-01-11 18:05:00,55.6,55.0,30.18,NE,44,2.3,2.3,98,0.00,CLR,SKC,0.10,0.0,WeatherDisplay:10.37,2013-01-11 23:05:00,
2013-01-11 18:10:00,55.5,54.9,30.18,NE,55,0.0,0.0,98,0.00,CLR,SKC,0.10,0.0,WeatherDisplay:10.37,2013-01-11 23:10:00,
2013-01-11 18:15:00,55.3,54.7,30.18,NE,55,0.0,0.0,98,0.00,CLR,SKC,0.10,0.0,WeatherDisplay:10.37,2013-01-11 23:15:00,
2013-01-11 18:20:00,55.3,54.7,30.18,NE,55,0.0,0.0,98,0.00,CLR,SKC,0.10,0.0,WeatherDisplay:10.37,2013-01-11 23:20:00,
2013-01-11 18:25:00,55.0,54.4,30.18,NE,55,0.0,0.0,98,0.00,CLR,SKC,0.10,0.0,WeatherDisplay:10.37,2013-01-11 23:25:00,
2013-01-11 18:30:00,54.8,54.2,30.18,NE,55,0.0,0.0,98,0.00,CLR,SKC,0.10,0.0,WeatherDisplay:10.37,2013-01-11 23:30:00,
2013-01-11 18:35:00,54.9,54.3,30.18,NE,55,0.0,0.0,98,0.00,CLR,SKC,0.10,0.0,WeatherDisplay:10.37,2013-01-11 23:35:00,
2013-01-11 18:40:00,54.5,53.9,30.18,NE,55,0.0,0.0,98,0.00,CLR,SKC,0.10,0.0,WeatherDisplay:10.37,2013-01-11 23:40:00,
2013-01-11 18:45:00,54.1,53.5,30.18,NE,55,0.0,0.0,98,0.00,CLR,SKC,0.10,0.0,WeatherDisplay:10.37,2013-01-11 23:45:00,
2013-01-11 18:50:00,54.3,53.7,30.17,NE,55,0.0,0.0,98,0.00,CLR,SKC,0.10,0.0,WeatherDisplay:10.37,2013-01-11 23:50:00,
2013-01-11 18:55:00,53.8,53.2,30.17,NE,55,0.0,0.0,98,0.00,CLR,SKC,0.10,0.0,WeatherDisplay:10.37,2013-01-11 23:55:00,
2013-01-11 19:01:00,53.9,53.3,30.17,NE,55,0.0,0.0,98,0.00,CLR,SKC,0.10,0.0,WeatherDisplay:10.37,2013-01-12 00:01:00,
2013-01-11 19:06:00,53.8,53.2,30.17,NE,55,0.0,0.0,98,0.00,CLR,SKC,0.10,0.0,WeatherDisplay:10.37,2013-01-12 00:06:00,
2013-01-11 19:11:00,53.2,52.7,30.17,NE,55,0.0,0.0,98,0.00,CLR,SKC,0.10,0.0,WeatherDisplay:10.37,2013-01-12 00:11:00,
2013-01-11 19:16:00,53.0,52.5,30.17,NE,55,0.0,0.0,98,0.00,CLR,SKC,0.10,0.0,WeatherDisplay:10.37,2013-01-12 00:16:00,
2013-01-11 19:21:00,53.4,52.8,30.17,NE,55,0.0,0.0,98,0.00,CLR,SKC,0.10,0.0,WeatherDisplay:10.37,2013-01-12 00:21:00,
2013-01-11 19:26:00,53.3,52.8,30.16,NE,55,0.0,0.0,98,0.00,CLR,SKC,0.10,0.0,WeatherDisplay:10.37,2013-01-12 00:26:00,
2013-01-11 19:31:00,53.2,52.7,30.16,NE,55,0.0,0.0,98,0.00,CLR,SKC,0.10,0.0,WeatherDisplay:10.37,2013-01-12 00:31:00,
2013-01-11 19:36:00,53.7,53.1,30.16,NE,55,0.0,0.0,98,0.00,CLR,SKC,0.10,0.0,WeatherDisplay:10.37,2013-01-12 00:36:00,
2013-01-11 19:41:00,54.0,53.4,30.16,NE,55,0.0,0.0,98,0.00,CLR,SKC,0.10,0.0,WeatherDisplay:10.37,2013-01-12 00:41:00,
2013-01-11 19:46:00,54.1,53.5,30.16,NE,55,0.0,0.0,98,0.00,CLR,SKC,0.10,0.0,WeatherDisplay:10.37,2013-01-12 00:46:00,
2013-01-11 19:51:00,54.1,53.5,30.16,NE,55,0.0,0.0,98,0.00,CLR,SKC,0.10,0.0,WeatherDisplay:10.37,2013-01-12 00:51:00,
2013-01-11 19:56:00,54.4,53.8,30.16,NE,55,0.0,0.0,98,0.00,CLR,SKC,0.10,0.0,WeatherDisplay:10.37,2013-01-12 00:56:00,
2013-01-11 20:01:00,54.2,53.6,30.16,NE,55,0.0,0.0,98,0.00,CLR,SKC,0.10,0.0,WeatherDisplay:10.37,2013-01-12 01:01:00,
2013-01-11 20:06:00,54.7,54.4,30.16,ESE,116,3.5,3.5,99,0.00,CLR,SKC,0.10,0.0,WeatherDisplay:10.37,2013-01-12 01:06:00,
2013-01-11 20:11:00,54.7,54.4,30.17,East,82,6.5,6.5,99,0.00,CLR,SKC,0.10,0.0,WeatherDisplay:10.37,2013-01-12 01:11:00,
2013-01-11 20:16:00,54.6,54.3,30.17,NE,55,5.8,5.8,99,0.00,CLR,SKC,0.10,0.0,WeatherDisplay:10.37,2013-01-12 01:16:00,
2013-01-11 20:21:00,55.1,54.8,30.17,NE,44,6.9,6.9,99,0.00,CLR,SKC,0.10,0.0,WeatherDisplay:10.37,2013-01-12 01:21:00,
2013-01-11 20:26:00,55.0,54.7,30.17,NNE,17,3.5,3.5,99,0.00,CLR,SKC,0.10,0.0,WeatherDisplay:10.37,2013-01-12 01:26:00,
2013-01-11 20:31:00,55.3,55.0,30.16,NNE,21,3.5,3.5,99,0.00,CLR,SKC,0.10,0.0,WeatherDisplay:10.37,2013-01-12 01:31:00,
2013-01-11 20:36:00,55.5,55.2,30.16,NNE,17,3.5,3.5,99,0.00,CLR,SKC,0.10,0.0,WeatherDisplay:10.37,2013-01-12 01:36:00,
2013-01-11 20:41:00,55.1,54.8,30.17,ENE,69,3.7,3.7,99,0.00,CLR,SKC,0.10,0.0,WeatherDisplay:10.37,2013-01-12 01:41:00,
2013-01-11 20:46:00,55.3,54.7,30.17,NE,56,3.5,3.5,98,0.00,CLR,SKC,0.10,0.0,WeatherDisplay:10.37,2013-01-12 01:46:00,
2013-01-11 20:51:00,55.4,54.8,30.17,NNE,16,4.6,4.6,98,0.00,CLR,SKC,0.10,0.0,WeatherDisplay:10.37,2013-01-12 01:51:00,
2013-01-11 20:56:00,55.2,54.6,30.16,North,352,0.0,0.0,98,0.00,CLR,SKC,0.10,0.0,WeatherDisplay:10.37,2013-01-12 01:56:00,
2013-01-11 21:01:00,55.3,54.7,30.16,North,352,0.0,0.0,98,0.00,CLR,SKC,0.10,0.0,WeatherDisplay:10.37,2013-01-12 02:01:00,
2013-01-11 21:06:00,55.5,54.9,30.16,NE,35,2.3,2.3,98,0.00,CLR,SKC,0.10,0.0,WeatherDisplay:10.37,2013-01-12 02:06:00,
2013-01-11 21:11:00,55.2,54.6,30.16,NE,35,0.0,0.0,98,0.00,CLR,SKC,0.10,0.0,WeatherDisplay:10.37,2013-01-12 02:11:00,
2013-01-11 21:16:00,55.3,54.7,30.16,NE,41,2.3,2.3,98,0.00,CLR,SKC,0.10,0.0,WeatherDisplay:10.37,2013-01-12 02:16:00,
2013-01-11 21:21:00,55.5,54.9,30.16,ESE,113,2.3,2.3,98,0.00,CLR,SKC,0.10,0.0,WeatherDisplay:10.37,2013-01-12 02:21:00,
2013-01-11 21:26:00,55.1,54.5,30.16,North,3,0.0,0.0,98,0.00,CLR,SKC,0.10,0.0,WeatherDisplay:10.37,2013-01-12 02:26:00,
2013-01-11 21:31:00,55.1,54.5,30.17,ENE,69,4.6,4.6,98,0.00,CLR,SKC,0.10,0.0,WeatherDisplay:10.37,2013-01-12 02:31:00,
2013-01-11 21:36:00,55.0,54.4,30.17,East,92,1.9,1.9,98,0.00,CLR,SKC,0.10,0.0,WeatherDisplay:10.37,2013-01-12 02:36:00,
2013-01-11 21:41:00,55.1,54.5,30.17,ESE,112,0.0,0.0,98,0.00,CLR,SKC,0.10,0.0,WeatherDisplay:10.37,2013-01-12 02:41:00,
2013-01-11 21:46:00,55.0,54.4,30.17,East,92,2.7,2.7,98,0.00,CLR,SKC,0.10,0.0,WeatherDisplay:10.37,2013-01-12 02:46:00,
2013-01-11 21:51:00,54.8,54.2,30.17,NE,42,0.0,0.0,98,0.00,CLR,SKC,0.10,0.0,WeatherDisplay:10.37,2013-01-12 02:51:00,
2013-01-11 21:56:00,55.0,54.4,30.16,NE,42,0.0,0.0,98,0.00,CLR,SKC,0.10,0.0,WeatherDisplay:10.37,2013-01-12 02:56:00,
2013-01-11 22:01:00,54.9,54.3,30.16,NE,42,0.0,0.0,98,0.00,CLR,SKC,0.10,0.0,WeatherDisplay:10.37,2013-01-12 03:01:00,
2013-01-11 22:06:00,55.0,54.4,30.17,NE,42,0.0,0.0,98,0.00,CLR,SKC,0.10,0.0,WeatherDisplay:10.37,2013-01-12 03:06:00,
2013-01-11 22:11:00,55.0,54.4,30.17,NE,42,0.0,0.0,98,0.00,CLR,SKC,0.10,0.0,WeatherDisplay:10.37,2013-01-12 03:11:00,
2013-01-11 22:16:00,54.8,54.2,30.16,NE,42,0.0,0.0,98,0.00,CLR,SKC,0.10,0.0,WeatherDisplay:10.37,2013-01-12 03:16:00,
2013-01-11 22:21:00,54.8,54.2,30.16,NE,42,0.0,0.0,98,0.00,CLR,SKC,0.10,0.0,WeatherDisplay:10.37,2013-01-12 03:21:00,
2013-01-11 22:26:00,54.6,54.0,30.16,NE,42,0.0,0.0,98,0.00,CLR,SKC,0.10,0.0,WeatherDisplay:10.37,2013-01-12 03:26:00,
2013-01-11 22:31:00,54.7,54.1,30.16,NE,35,1.1,0.0,98,0.00,CLR,SKC,0.10,0.0,WeatherDisplay:10.37,2013-01-12 03:31:00,
2013-01-11 22:36:00,54.4,53.8,30.16,NE,35,0.0,0.0,98,0.00,CLR,SKC,0.10,0.0,WeatherDisplay:10.37,2013-01-12 03:36:00,
2013-01-11 22:41:00,54.4,53.8,30.16,East,80,0.0,0.9,98,0.00,CLR,SKC,0.10,0.0,WeatherDisplay:10.37,2013-01-12 03:41:00,
2013-01-11 22:46:00,54.3,53.7,30.16,North,8,1.1,0.0,98,0.00,CLR,SKC,0.10,0.0,WeatherDisplay:10.37,2013-01-12 03:46:00,
2013-01-11 22:51:00,54.0,53.4,30.16,North,8,0.0,0.0,98,0.00,CLR,SKC,0.10,0.0,WeatherDisplay:10.37,2013-01-12 03:51:00,
2013-01-11 22:56:00,54.0,53.4,30.15,North,8,0.0,0.0,98,0.00,CLR,SKC,0.10,0.0,WeatherDisplay:10.37,2013-01-12 03:56:00,
2013-01-11 23:01:00,53.6,53.3,30.15,North,8,0.0,0.0,99,0.00,CLR,SKC,0.10,0.0,WeatherDisplay:10.37,2013-01-12 04:01:00,
2013-01-11 23:06:00,53.8,53.5,30.15,North,8,0.0,0.0,99,0.00,CLR,SKC,0.10,0.0,WeatherDisplay:10.37,2013-01-12 04:06:00,
2013-01-11 23:11:00,53.4,53.1,30.15,North,8,0.0,0.0,99,0.00,CLR,SKC,0.10,0.0,WeatherDisplay:10.37,2013-01-12 04:11:00,
2013-01-11 23:16:00,53.5,53.2,30.14,North,8,0.0,0.0,99,0.00,CLR,SKC,0.10,0.0,WeatherDisplay:10.37,2013-01-12 04:16:00,
2013-01-11 23:21:00,53.1,52.8,30.14,North,8,0.0,0.0,99,0.00,CLR,SKC,0.10,0.0,WeatherDisplay:10.37,2013-01-12 04:21:00,
2013-01-11 23:26:00,52.8,52.5,30.14,North,8,0.0,0.0,99,0.00,CLR,SKC,0.10,0.0,WeatherDisplay:10.37,2013-01-12 04:26:00,
2013-01-11 23:31:00,52.8,52.5,30.14,North,8,0.0,0.0,99,0.00,CLR,SKC,0.10,0.0,WeatherDisplay:10.37,2013-01-12 04:31:00,
2013-01-11 23:36:00,53.1,52.8,30.14,North,8,0.0,0.0,99,0.00,CLR,SKC,0.10,0.0,WeatherDisplay:10.37,2013-01-12 04:36:00,
2013-01-11 23:41:00,52.9,52.6,30.14,North,8,0.0,0.0,99,0.00,CLR,SKC,0.10,0.0,WeatherDisplay:10.37,2013-01-12 04:41:00,
2013-01-11 23:46:00,53.1,52.8,30.14,North,8,0.0,0.0,99,0.00,CLR,SKC,0.10,0.0,WeatherDisplay:10.37,2013-01-12 04:46:00,
2013-01-11 23:51:00,53.3,53.0,30.14,North,8,0.0,0.0,99,0.00,CLR,SKC,0.10,0.0,WeatherDisplay:10.37,2013-01-12 04:51:00,
2013-01-11 23:56:00,52.8,52.5,30.14,North,8,0.0,0.0,99,0.00,CLR,SKC,0.10,0.0,WeatherDisplay:10.37,2013-01-12 04:56:00,